Time;durP1;ratioP1;P1;durP2;ratioP2;P2;SDS_P1;SDS_P2;PMS_P1;PMS_P2;Temp;Humidity;BMP_temperature;BMP_pressure;BME280_temperature;BME280_humidity;BME280_pressure;Samples;Min_cycle;Max_cycle;Signal;HPM_P1;HPM_P2
2021/08/04 00:01:50;;;;;;;2.35;2.05;;;17.00;99.90;;;;;;6185306;23;20163;-75
2021/08/04 00:04:18;;;;;;;2.53;1.90;;;17.00;99.90;;;;;;6185664;23;20189;-75
2021/08/04 00:06:45;;;;;;;4.72;2.38;;;17.00;99.90;;;;;;6184340;23;20166;-75
2021/08/04 00:09:12;;;;;;;3.05;1.90;;;17.00;99.90;;;;;;6184922;23;20210;-74
2021/08/04 00:11:40;;;;;;;1.85;1.70;;;17.00;99.90;;;;;;6184442;23;20186;-74
2021/08/04 00:14:07;;;;;;;1.50;1.40;;;17.00;99.90;;;;;;6183818;23;20566;-73
2021/08/04 00:16:36;;;;;;;1.75;1.65;;;17.00;99.90;;;;;;6183782;23;20180;-74
2021/08/04 00:19:04;;;;;;;2.05;1.85;;;17.00;99.90;;;;;;6184920;23;20215;-73
2021/08/04 00:21:31;;;;;;;2.40;2.20;;;17.00;99.90;;;;;;6185569;23;20162;-73
2021/08/04 00:23:58;;;;;;;3.78;1.80;;;17.00;99.90;;;;;;6185489;23;20187;-76
2021/08/04 00:26:27;;;;;;;1.63;1.52;;;17.00;99.90;;;;;;6184866;23;20164;-73
2021/08/04 00:28:59;;;;;;;3.55;2.00;;;16.90;99.90;;;;;;6185066;23;20198;-77
2021/08/04 00:31:26;;;;;;;1.90;1.75;;;17.00;99.90;;;;;;6185152;23;20167;-75
2021/08/04 00:33:55;;;;;;;6.18;1.95;;;17.00;99.90;;;;;;6184429;23;20163;-74
2021/08/04 00:36:22;;;;;;;2.45;1.80;;;17.00;99.90;;;;;;6184414;23;20940;-77
2021/08/04 00:38:49;;;;;;;2.38;1.85;;;16.90;99.90;;;;;;6184855;23;20205;-75
2021/08/04 00:41:16;;;;;;;1.92;1.55;;;17.00;99.90;;;;;;6184013;23;20175;-74
2021/08/04 00:43:43;;;;;;;1.70;1.60;;;16.90;99.90;;;;;;6185215;23;20191;-74
2021/08/04 00:46:13;;;;;;;3.10;2.13;;;16.90;99.90;;;;;;6184642;23;20163;-77
2021/08/04 00:48:41;;;;;;;1.97;1.53;;;17.00;99.90;;;;;;6183779;23;20535;-75
2021/08/04 00:51:09;;;;;;;2.57;2.10;;;17.00;99.90;;;;;;6185510;23;20399;-75
2021/08/04 00:53:37;;;;;;;4.53;2.50;;;17.00;99.90;;;;;;6185094;23;20866;-76
2021/08/04 00:56:08;;;;;;;2.63;2.20;;;17.00;99.90;;;;;;6185137;23;20164;-75
2021/08/04 00:58:38;;;;;;;3.92;1.77;;;16.90;99.90;;;;;;6185177;23;20438;-75
2021/08/04 01:01:12;;;;;;;3.08;2.40;;;16.90;99.90;;;;;;6184510;23;20168;-74
2021/08/04 01:03:43;;;;;;;2.50;2.30;;;16.90;99.90;;;;;;6159303;23;20577;-75
2021/08/04 01:06:17;;;;;;;5.43;2.00;;;16.80;99.90;;;;;;6185240;23;20165;-76
2021/08/04 01:08:50;;;;;;;3.20;2.35;;;16.80;99.90;;;;;;6184589;23;20518;-74
2021/08/04 01:11:20;;;;;;;2.17;1.98;;;16.70;99.90;;;;;;6158444;23;20195;-75
2021/08/04 01:13:50;;;;;;;2.85;2.60;;;16.70;99.90;;;;;;6184506;23;20244;-75
2021/08/04 01:16:22;;;;;;;2.33;1.83;;;16.60;99.90;;;;;;6183582;23;20169;-74
2021/08/04 01:18:57;;;;;;;2.95;1.80;;;16.60;99.90;;;;;;6185051;23;20207;-75
2021/08/04 01:21:34;;;;;;;3.60;1.95;;;16.60;99.90;;;;;;6185083;23;20169;-74
2021/08/04 01:24:11;;;;;;;2.63;1.92;;;16.50;99.90;;;;;;6159130;23;20187;-74
2021/08/04 01:26:40;;;;;;;2.17;1.98;;;16.50;99.90;;;;;;6184255;23;20171;-76
2021/08/04 01:29:11;;;;;;;2.58;2.13;;;16.50;99.90;;;;;;6184242;23;20207;-74
2021/08/04 01:31:40;;;;;;;3.50;2.72;;;16.50;99.90;;;;;;6184755;23;20166;-76
2021/08/04 01:34:08;;;;;;;2.40;2.20;;;16.50;99.90;;;;;;6184302;23;20162;-76
2021/08/04 01:36:35;;;;;;;2.72;2.53;;;16.50;99.90;;;;;;6183938;23;20168;-76
2021/08/04 01:39:05;;;;;;;5.97;2.67;;;16.50;99.90;;;;;;6187385;23;20202;-74
2021/08/04 01:41:35;;;;;;;3.15;2.20;;;16.50;99.90;;;;;;6186973;23;20166;-74
2021/08/04 01:44:06;;;;;;;1.98;1.73;;;16.40;99.90;;;;;;6186623;23;20646;-75
2021/08/04 01:46:33;;;;;;;1.92;1.73;;;16.40;99.90;;;;;;6185856;23;20172;-75
2021/08/04 01:49:02;;;;;;;7.05;3.20;;;16.40;99.90;;;;;;6186518;23;20518;-74
2021/08/04 01:51:30;;;;;;;2.95;2.17;;;16.40;99.90;;;;;;6186819;23;20179;-74
2021/08/04 01:54:00;;;;;;;4.00;2.58;;;16.40;99.90;;;;;;6187268;23;20204;-74
2021/08/04 01:56:27;;;;;;;3.20;2.40;;;16.40;99.90;;;;;;6186400;23;20177;-75
2021/08/04 01:58:54;;;;;;;2.60;2.22;;;16.40;99.90;;;;;;6186328;23;20204;-74
2021/08/04 02:01:25;;;;;;;2.30;2.10;;;16.40;99.90;;;;;;6187097;23;20163;-74
2021/08/04 02:03:52;;;;;;;2.53;2.28;;;16.40;99.90;;;;;;6185840;23;20184;-75
2021/08/04 02:06:26;;;;;;;3.22;2.78;;;16.40;99.90;;;;;;6185742;23;20161;-73
2021/08/04 02:09:01;;;;;;;2.50;2.30;;;16.40;99.90;;;;;;6185798;23;20199;-74
2021/08/04 02:11:43;;;;;;;3.33;2.97;;;16.40;99.90;;;;;;6160783;23;20592;-74
2021/08/04 02:14:18;;;;;;;3.78;3.03;;;16.40;99.90;;;;;;6160433;23;20918;-75
2021/08/04 02:16:56;;;;;;;3.33;2.95;;;16.40;99.90;;;;;;6160474;23;20164;-75
2021/08/04 02:19:28;;;;;;;3.97;3.22;;;16.40;99.90;;;;;;6162171;23;20169;-76
2021/08/04 02:22:02;;;;;;;3.60;3.10;;;16.40;99.90;;;;;;6187152;23;20165;-74
2021/08/04 02:24:33;;;;;;;5.07;3.20;;;16.40;99.90;;;;;;6186864;23;20187;-76
2021/08/04 02:27:03;;;;;;;3.85;2.83;;;16.40;99.90;;;;;;6186449;23;20163;-74
2021/08/04 02:29:33;;;;;;;3.38;2.95;;;16.40;99.90;;;;;;6185182;23;20498;-76
2021/08/04 02:32:03;;;;;;;4.05;3.40;;;16.30;99.90;;;;;;6187058;23;20170;-76
2021/08/04 02:34:30;;;;;;;3.80;3.05;;;16.30;99.90;;;;;;6186948;23;20161;-76
2021/08/04 02:36:57;;;;;;;3.90;3.40;;;16.30;99.90;;;;;;6186592;23;20175;-76
2021/08/04 02:39:25;;;;;;;4.40;3.70;;;16.20;99.90;;;;;;6186349;23;20593;-74
2021/08/04 02:41:53;;;;;;;4.18;3.40;;;16.20;99.90;;;;;;6185501;23;20161;-76
2021/08/04 02:44:21;;;;;;;4.40;3.20;;;16.20;99.90;;;;;;6186696;23;20510;-75
2021/08/04 02:46:49;;;;;;;7.13;3.25;;;16.20;99.90;;;;;;6185142;23;20166;-76
2021/08/04 02:49:19;;;;;;;6.40;3.78;;;16.20;99.90;;;;;;6185871;23;20218;-75
2021/08/04 02:51:47;;;;;;;4.30;3.20;;;16.20;99.90;;;;;;6186330;23;20166;-75
2021/08/04 02:54:18;;;;;;;5.90;3.33;;;16.20;99.90;;;;;;6185859;23;20494;-75
2021/08/04 02:56:45;;;;;;;4.70;3.72;;;16.20;99.90;;;;;;6184465;23;20514;-74
2021/08/04 02:59:13;;;;;;;4.05;3.13;;;16.10;99.90;;;;;;6185321;23;20196;-74
2021/08/04 03:01:40;;;;;;;5.57;4.28;;;16.20;99.90;;;;;;6185642;23;20185;-74
2021/08/04 03:04:07;;;;;;;3.38;2.75;;;16.10;99.90;;;;;;6186522;23;20172;-73
2021/08/04 03:06:36;;;;;;;4.40;2.95;;;16.10;99.90;;;;;;6185683;23;20169;-74
2021/08/04 03:09:03;;;;;;;3.55;3.10;;;16.10;99.90;;;;;;6186326;23;20208;-75
2021/08/04 03:11:30;;;;;;;4.03;2.88;;;16.10;99.90;;;;;;6186408;23;20191;-76
2021/08/04 03:13:58;;;;;;;4.70;3.05;;;16.10;99.90;;;;;;6185977;23;20171;-76
2021/08/04 03:16:25;;;;;;;3.38;3.03;;;16.00;99.90;;;;;;6185934;23;20168;-75
2021/08/04 03:18:52;;;;;;;3.30;3.00;;;15.90;99.90;;;;;;6186549;23;20201;-74
2021/08/04 03:21:19;;;;;;;4.63;3.17;;;15.90;99.90;;;;;;6185983;23;20165;-75
2021/08/04 03:23:48;;;;;;;5.03;3.25;;;15.90;99.90;;;;;;6185909;23;20187;-74
2021/08/04 03:26:15;;;;;;;3.95;3.15;;;16.00;99.90;;;;;;6185395;23;20185;-75
2021/08/04 03:28:48;;;;;;;4.03;3.58;;;16.00;99.90;;;;;;6185257;23;20197;-74
2021/08/04 03:31:15;;;;;;;3.45;3.15;;;16.00;99.90;;;;;;6185364;23;20161;-71
2021/08/04 03:33:42;;;;;;;3.75;3.17;;;15.90;99.90;;;;;;6184338;23;20160;-76
2021/08/04 03:36:10;;;;;;;6.68;4.53;;;15.90;99.90;;;;;;6184592;23;20180;-75
2021/08/04 03:38:38;;;;;;;5.00;3.03;;;15.90;99.90;;;;;;6185237;23;20206;-72
2021/08/04 03:41:07;;;;;;;5.40;3.38;;;15.70;99.90;;;;;;6185318;23;20164;-70
2021/08/04 03:43:34;;;;;;;3.63;3.25;;;15.70;99.90;;;;;;6185297;23;20172;-71
2021/08/04 03:46:01;;;;;;;4.13;3.20;;;15.60;99.90;;;;;;6183913;23;20662;-72
2021/08/04 03:48:28;;;;;;;4.32;3.85;;;15.60;99.90;;;;;;6184616;23;20209;-71
2021/08/04 03:50:56;;;;;;;4.65;3.80;;;15.60;99.90;;;;;;6184980;23;20161;-72
2021/08/04 03:53:23;;;;;;;5.95;4.47;;;15.50;99.90;;;;;;6184598;23;20168;-71
2021/08/04 03:55:50;;;;;;;4.57;3.90;;;15.50;99.90;;;;;;6183956;23;20167;-73
2021/08/04 03:58:18;;;;;;;3.95;3.55;;;15.50;99.90;;;;;;6185337;23;20211;-70
2021/08/04 04:00:45;;;;;;;7.68;4.25;;;15.50;99.90;;;;;;6184063;23;20588;-74
2021/08/04 04:03:13;;;;;;;4.35;3.60;;;15.40;99.90;;;;;;6184545;23;20177;-71
2021/08/04 04:05:40;;;;;;;5.00;3.25;;;15.40;99.90;;;;;;6185168;23;20192;-71
2021/08/04 04:08:07;;;;;;;4.00;3.60;;;15.40;99.90;;;;;;6184483;23;20196;-72
2021/08/04 04:10:34;;;;;;;4.35;3.95;;;15.30;99.90;;;;;;6183730;23;20195;-73
2021/08/04 04:13:01;;;;;;;3.60;3.03;;;15.30;99.90;;;;;;6185011;23;20160;-72
2021/08/04 04:15:33;;;;;;;3.65;3.05;;;15.40;99.90;;;;;;6184627;23;20165;-72
2021/08/04 04:18:00;;;;;;;7.28;3.08;;;15.40;99.90;;;;;;6184099;23;20196;-73
2021/08/04 04:20:27;;;;;;;5.43;3.88;;;15.40;99.90;;;;;;6184716;23;20243;-71
2021/08/04 04:22:54;;;;;;;4.57;3.50;;;15.40;99.90;;;;;;6184050;23;20610;-72
2021/08/04 04:25:22;;;;;;;7.25;4.18;;;15.40;99.90;;;;;;6184376;23;20513;-71
2021/08/04 04:27:49;;;;;;;5.07;4.05;;;15.40;99.90;;;;;;6182973;23;20208;-74
2021/08/04 04:30:16;;;;;;;5.68;3.58;;;15.40;99.90;;;;;;6184567;23;20161;-72
2021/08/04 04:32:45;;;;;;;5.47;3.80;;;15.40;99.90;;;;;;6184740;23;20160;-70
2021/08/04 04:35:13;;;;;;;4.85;3.83;;;15.40;99.90;;;;;;6184138;23;20156;-72
2021/08/04 04:37:40;;;;;;;6.75;4.15;;;15.40;99.90;;;;;;6183272;23;20200;-71
2021/08/04 04:40:08;;;;;;;5.65;4.13;;;15.40;99.90;;;;;;6183440;23;20165;-74
2021/08/04 04:42:36;;;;;;;5.43;4.70;;;15.50;99.90;;;;;;6183807;23;20187;-79
2021/08/04 04:45:03;;;;;;;5.63;4.97;;;15.70;99.90;;;;;;6184056;23;20191;-72
2021/08/04 04:47:30;;;;;;;5.20;3.85;;;15.70;99.90;;;;;;6183316;23;20666;-71
2021/08/04 04:49:59;;;;;;;6.68;5.50;;;15.70;99.90;;;;;;6183812;23;20776;-75
2021/08/04 04:52:26;;;;;;;4.35;3.95;;;15.80;99.90;;;;;;6185118;23;20164;-72
2021/08/04 04:54:53;;;;;;;4.60;3.58;;;15.70;99.90;;;;;;6184727;23;20157;-72
2021/08/04 04:57:20;;;;;;;10.95;8.15;;;15.70;99.90;;;;;;6183960;23;20196;-75
2021/08/04 04:59:48;;;;;;;8.25;6.82;;;15.80;99.90;;;;;;6183780;23;20169;-71
2021/08/04 05:02:15;;;;;;;8.68;5.35;;;15.80;99.90;;;;;;6183456;23;20160;-72
2021/08/04 05:04:42;;;;;;;5.72;5.10;;;15.80;99.90;;;;;;6183957;23;20167;-72
2021/08/04 05:07:11;;;;;;;8.70;6.07;;;15.90;99.90;;;;;;6183382;23;20160;-73
2021/08/04 05:09:38;;;;;;;5.88;4.80;;;15.90;99.90;;;;;;6184517;23;20165;-73
2021/08/04 05:12:06;;;;;;;6.40;5.38;;;15.80;99.90;;;;;;6187552;23;20164;-74
2021/08/04 05:14:33;;;;;;;6.90;5.47;;;15.80;99.90;;;;;;6187327;23;20225;-75
2021/08/04 05:17:00;;;;;;;5.43;4.72;;;15.80;99.90;;;;;;6186563;23;20164;-75
2021/08/04 05:19:27;;;;;;;5.18;4.00;;;15.90;99.90;;;;;;6187509;23;20165;-77
2021/08/04 05:21:54;;;;;;;5.78;4.10;;;15.90;99.90;;;;;;6187099;23;20163;-74
2021/08/04 05:24:23;;;;;;;3.50;3.20;;;15.90;99.90;;;;;;6187167;23;20164;-78
2021/08/04 05:26:50;;;;;;;4.13;3.70;;;15.90;99.90;;;;;;6186957;23;20517;-76
2021/08/04 05:29:17;;;;;;;6.00;4.20;;;16.00;99.90;;;;;;6187292;23;20511;-72
2021/08/04 05:31:45;;;;;;;9.82;7.07;;;15.90;99.90;;;;;;6187091;23;20167;-76
2021/08/04 05:34:12;;;;;;;4.53;3.75;;;15.90;99.90;;;;;;6187081;23;20164;-73
2021/08/04 05:36:39;;;;;;;10.77;7.50;;;15.90;99.90;;;;;;6186507;23;20252;-74
2021/08/04 05:39:06;;;;;;;11.18;7.75;;;15.90;99.90;;;;;;6187632;23;20220;-74
2021/08/04 05:41:35;;;;;;;6.85;4.80;;;15.90;99.90;;;;;;6186853;23;20169;-74
2021/08/04 05:44:02;;;;;;;8.43;6.22;;;15.90;99.90;;;;;;6186086;23;20161;-74
2021/08/04 05:46:29;;;;;;;7.90;4.53;;;15.90;99.90;;;;;;6185283;23;20489;-74
2021/08/04 05:48:58;;;;;;;4.97;3.90;;;15.90;99.90;;;;;;6186925;23;20203;-73
2021/08/04 05:51:25;;;;;;;10.13;7.40;;;15.90;99.90;;;;;;6187299;23;20162;-72
2021/08/04 05:53:52;;;;;;;4.97;3.95;;;15.90;99.90;;;;;;6187032;23;20162;-72
2021/08/04 05:56:19;;;;;;;3.88;3.55;;;15.90;99.90;;;;;;6185468;23;20164;-72
2021/08/04 05:58:47;;;;;;;8.48;6.60;;;15.90;99.90;;;;;;6187167;23;20203;-70
2021/08/04 06:01:14;;;;;;;7.63;4.78;;;15.90;99.90;;;;;;6187049;23;20169;-72
2021/08/04 06:03:42;;;;;;;8.70;6.32;;;15.80;99.90;;;;;;6187774;23;20167;-71
2021/08/04 06:06:09;;;;;;;9.55;7.20;;;15.80;99.90;;;;;;6185970;23;20188;-71
2021/08/04 06:08:37;;;;;;;15.48;9.48;;;15.80;99.90;;;;;;6187647;23;20203;-72
2021/08/04 06:11:04;;;;;;;9.50;6.53;;;15.80;99.90;;;;;;6187878;23;20195;-73
2021/08/04 06:13:31;;;;;;;7.35;5.30;;;15.90;99.90;;;;;;6187481;23;20168;-73
2021/08/04 06:16:00;;;;;;;7.20;5.40;;;15.80;99.90;;;;;;6187390;23;20156;-74
2021/08/04 06:18:27;;;;;;;12.95;8.15;;;15.90;99.90;;;;;;6187310;23;20195;-73
2021/08/04 06:20:54;;;;;;;8.88;7.60;;;15.90;99.90;;;;;;6187061;23;20217;-73
2021/08/04 06:23:21;;;;;;;5.88;4.75;;;15.90;99.90;;;;;;6185777;23;20160;-73
2021/08/04 06:25:49;;;;;;;8.15;5.90;;;15.90;99.90;;;;;;6186431;23;20193;-73
2021/08/04 06:28:16;;;;;;;4.82;3.80;;;16.00;99.90;;;;;;6185008;23;20207;-73
2021/08/04 06:30:43;;;;;;;5.60;4.22;;;16.00;99.90;;;;;;6185413;23;20492;-74
2021/08/04 06:33:12;;;;;;;6.20;4.03;;;16.00;99.90;;;;;;6186185;23;20168;-74
2021/08/04 06:35:41;;;;;;;5.05;3.97;;;16.00;99.90;;;;;;6186943;23;20510;-74
2021/08/04 06:38:08;;;;;;;10.48;4.18;;;16.00;99.90;;;;;;6186234;23;20239;-74
2021/08/04 06:40:35;;;;;;;6.40;3.35;;;16.00;99.90;;;;;;6188042;23;20260;-76
2021/08/04 06:43:03;;;;;;;6.45;5.38;;;16.10;99.90;;;;;;6185429;23;20197;-76
2021/08/04 06:45:30;;;;;;;11.40;8.43;;;16.10;99.90;;;;;;6185542;23;20192;-75
2021/08/04 06:47:57;;;;;;;8.48;4.75;;;16.20;99.90;;;;;;6184905;23;20196;-76
2021/08/04 06:50:27;;;;;;;7.93;4.72;;;16.20;99.90;;;;;;6184552;23;20170;-77
2021/08/04 06:52:54;;;;;;;6.93;3.80;;;16.30;99.90;;;;;;6185855;23;20498;-76
2021/08/04 06:55:22;;;;;;;10.18;5.65;;;16.30;99.90;;;;;;6185569;23;20162;-76
2021/08/04 06:57:49;;;;;;;7.00;4.45;;;16.40;99.90;;;;;;6185170;23;20209;-77
2021/08/04 07:00:16;;;;;;;16.13;10.73;;;16.50;99.90;;;;;;6184366;23;20166;-75
2021/08/04 07:02:43;;;;;;;9.00;8.10;;;16.50;99.90;;;;;;6184380;23;20164;-76
2021/08/04 07:05:11;;;;;;;16.15;11.30;;;16.50;99.90;;;;;;6185684;23;20194;-76
2021/08/04 07:07:42;;;;;;;11.55;6.20;;;16.60;99.90;;;;;;6185041;23;20219;-76
2021/08/04 07:10:10;;;;;;;6.03;3.95;;;16.60;99.90;;;;;;6186074;23;20196;-76
2021/08/04 07:12:38;;;;;;;5.65;4.30;;;16.60;99.90;;;;;;6184735;23;20211;-76
2021/08/04 07:15:07;;;;;;;6.75;3.90;;;16.60;99.90;;;;;;6184923;23;20160;-76
2021/08/04 07:17:44;;;;;;;3.65;3.35;;;16.70;99.90;;;;;;6184675;23;20656;-76
2021/08/04 07:20:12;;;;;;;6.25;3.90;;;16.70;99.90;;;;;;6185958;23;20167;-78
2021/08/04 07:22:41;;;;;;;9.50;5.93;;;16.80;99.90;;;;;;6185853;23;20224;-76
2021/08/04 07:25:09;;;;;;;7.43;6.65;;;16.90;99.90;;;;;;6185783;23;20170;-76
2021/08/04 07:27:39;;;;;;;9.73;8.05;;;16.90;99.90;;;;;;6184485;23;20204;-77
2021/08/04 07:30:09;;;;;;;15.63;12.65;;;16.90;99.90;;;;;;6185003;23;20172;-78
2021/08/04 07:32:37;;;;;;;6.40;5.45;;;16.90;99.90;;;;;;6184246;23;20203;-76
2021/08/04 07:35:05;;;;;;;9.20;6.68;;;16.90;99.90;;;;;;6183748;23;20161;-77
2021/08/04 07:37:33;;;;;;;7.45;6.13;;;16.90;99.90;;;;;;6184533;23;20573;-77
2021/08/04 07:40:02;;;;;;;8.48;7.57;;;16.90;99.90;;;;;;6183934;23;20590;-77
2021/08/04 07:42:29;;;;;;;6.80;6.00;;;16.90;99.90;;;;;;6184220;23;20649;-77
2021/08/04 07:44:56;;;;;;;8.80;6.50;;;16.90;99.90;;;;;;6185591;23;20168;-77
2021/08/04 07:47:24;;;;;;;7.25;6.30;;;16.90;99.90;;;;;;6184076;23;20202;-78
2021/08/04 07:49:51;;;;;;;9.20;4.78;;;16.90;99.90;;;;;;6184093;23;20161;-77
2021/08/04 07:52:19;;;;;;;7.38;5.68;;;16.90;99.90;;;;;;6185122;23;20513;-78
2021/08/04 07:54:46;;;;;;;6.03;4.55;;;16.90;99.90;;;;;;6186061;23;20162;-76
2021/08/04 07:57:15;;;;;;;12.00;8.30;;;16.90;99.90;;;;;;6185131;23;20248;-78
2021/08/04 07:59:42;;;;;;;14.57;7.55;;;16.90;99.90;;;;;;6184901;23;20171;-78
2021/08/04 08:02:09;;;;;;;6.45;5.15;;;16.90;99.90;;;;;;6184610;23;20170;-77
2021/08/04 08:04:38;;;;;;;11.90;9.30;;;17.00;99.90;;;;;;6184294;23;20163;-77
2021/08/04 08:07:05;;;;;;;7.53;6.07;;;17.00;99.90;;;;;;6184157;23;20187;-77
2021/08/04 08:09:32;;;;;;;4.15;3.75;;;17.10;99.90;;;;;;6185120;23;20394;-78
2021/08/04 08:12:00;;;;;;;5.35;4.53;;;17.10;99.90;;;;;;6184597;23;20641;-77
2021/08/04 08:14:31;;;;;;;8.20;5.40;;;17.10;99.90;;;;;;6185358;23;20163;-75
2021/08/04 08:16:59;;;;;;;5.73;5.10;;;17.20;99.90;;;;;;6184497;23;20394;-79
2021/08/04 08:19:26;;;;;;;10.60;4.15;;;17.30;99.90;;;;;;6186717;23;20398;-79
2021/08/04 08:21:53;;;;;;;5.25;3.95;;;17.40;99.90;;;;;;6186345;23;20161;-78
2021/08/04 08:24:21;;;;;;;6.75;6.05;;;17.40;99.90;;;;;;6185453;23;20605;-79
2021/08/04 08:26:48;;;;;;;5.50;3.95;;;17.50;99.90;;;;;;6185589;23;20183;-77
2021/08/04 08:29:16;;;;;;;4.43;3.50;;;17.60;99.90;;;;;;6185896;23;20221;-79
2021/08/04 08:31:44;;;;;;;6.63;3.90;;;17.70;99.90;;;;;;6184747;23;20397;-76
2021/08/04 08:34:11;;;;;;;5.55;4.43;;;17.70;99.90;;;;;;6184854;23;20403;-76
2021/08/04 08:36:39;;;;;;;6.63;3.85;;;17.70;99.90;;;;;;6184814;23;20174;-76
2021/08/04 08:39:09;;;;;;;4.60;3.40;;;17.80;99.90;;;;;;6185135;23;20226;-76
2021/08/04 08:41:36;;;;;;;4.97;3.60;;;17.80;99.90;;;;;;6184504;23;21083;-78
2021/08/04 08:44:04;;;;;;;5.27;3.70;;;17.80;99.90;;;;;;6185157;23;20728;-77
2021/08/04 08:46:33;;;;;;;4.30;3.30;;;17.90;99.90;;;;;;6184364;23;20702;-78
2021/08/04 08:49:02;;;;;;;5.97;4.10;;;18.00;99.90;;;;;;6184900;23;20440;-78
2021/08/04 08:51:29;;;;;;;6.20;3.70;;;18.10;99.90;;;;;;6185909;23;20406;-76
2021/08/04 08:54:00;;;;;;;4.40;3.30;;;18.20;99.90;;;;;;6185733;23;20401;-79
2021/08/04 08:56:27;;;;;;;3.27;2.97;;;18.30;99.90;;;;;;6185188;23;20391;-75
2021/08/04 08:58:56;;;;;;;6.03;3.10;;;18.30;99.90;;;;;;6184095;23;20788;-78
2021/08/04 09:01:34;;;;;;;5.53;2.53;;;18.30;99.90;;;;;;6185266;23;20398;-78
2021/08/04 09:04:06;;;;;;;3.90;3.00;;;18.30;99.90;;;;;;6185729;23;20394;-78
2021/08/04 09:06:47;;;;;;;5.30;3.60;;;18.30;99.90;;;;;;6184803;23;20485;-78
2021/08/04 09:09:19;;;;;;;4.27;2.80;;;18.30;99.90;;;;;;6184642;23;20930;-76
2021/08/04 09:11:52;;;;;;;4.23;3.60;;;18.30;99.90;;;;;;6184702;23;20469;-77
2021/08/04 09:14:26;;;;;;;3.87;3.27;;;18.20;99.90;;;;;;6184597;23;20393;-76
2021/08/04 09:17:05;;;;;;;4.33;3.10;;;18.10;99.90;;;;;;6183482;23;20758;-76
2021/08/04 09:19:34;;;;;;;3.70;3.30;;;18.10;99.90;;;;;;6185364;23;20400;-75
2021/08/04 09:22:22;;;;;;;5.23;3.77;;;18.00;99.90;;;;;;6186586;23;20815;-76
2021/08/04 09:25:11;;;;;;;4.73;4.23;;;18.00;99.90;;;;;;6186116;23;20776;-78
2021/08/04 09:27:52;;;;;;;7.33;3.10;;;18.00;99.90;;;;;;6183785;23;20447;-76
2021/08/04 09:30:25;;;;;;;8.93;4.07;;;18.10;99.90;;;;;;6185223;23;20985;-76
2021/08/04 09:32:54;;;;;;;6.03;4.13;;;18.10;99.90;;;;;;6183933;23;20889;-75
2021/08/04 09:35:24;;;;;;;4.20;3.40;;;18.20;99.90;;;;;;6184858;23;20858;-78
2021/08/04 09:38:05;;;;;;;6.93;4.33;;;18.20;99.90;;;;;;6183684;23;20446;-77
2021/08/04 09:40:32;;;;;;;3.20;2.87;;;18.30;99.90;;;;;;6183801;23;20384;-76
2021/08/04 09:43:00;;;;;;;5.00;3.57;;;18.40;99.90;;;;;;6183794;23;20407;-78
2021/08/04 09:45:41;;;;;;;4.53;3.07;;;18.60;99.90;;;;;;6184316;23;20728;-76
2021/08/04 09:48:10;;;;;;;5.10;3.27;;;18.70;99.90;;;;;;6183150;23;20508;-75
2021/08/04 09:50:51;;;;;;;3.43;2.87;;;18.90;99.90;;;;;;6184649;23;20399;-76
2021/08/04 09:53:22;;;;;;;3.67;3.20;;;19.10;99.90;;;;;;6184545;23;20446;-77
2021/08/04 09:56:12;;;;;;;5.00;3.23;;;19.20;99.90;;;;;;6184863;23;20409;-77
2021/08/04 09:58:43;;;;;;;6.87;3.77;;;19.40;99.90;;;;;;6185444;23;20432;-74
2021/08/04 10:01:12;;;;;;;4.03;3.40;;;19.50;99.90;;;;;;6186697;23;20435;-75
2021/08/04 10:03:39;;;;;;;5.70;3.20;;;19.50;99.90;;;;;;6186723;23;20753;-74
2021/08/04 10:06:20;;;;;;;3.73;3.20;;;19.60;99.90;;;;;;6186169;23;20392;-74
2021/08/04 10:08:47;;;;;;;3.67;3.20;;;19.60;99.90;;;;;;6186583;23;20989;-74
2021/08/04 10:11:15;;;;;;;4.33;3.37;;;19.80;99.90;;;;;;6186522;23;20415;-75
2021/08/04 10:13:42;;;;;;;3.90;3.47;;;19.70;99.90;;;;;;6186991;23;20392;-74
2021/08/04 10:16:09;;;;;;;4.97;3.83;;;19.70;99.90;;;;;;6186103;23;20615;-74
2021/08/04 10:18:40;;;;;;;4.20;3.47;;;19.70;99.90;;;;;;6186023;23;20428;-74
2021/08/04 10:21:12;;;;;;;6.50;3.30;;;19.60;99.90;;;;;;6186052;23;20874;-75
2021/08/04 10:23:41;;;;;;;3.20;2.50;;;19.70;99.90;;;;;;6186949;23;20388;-74
2021/08/04 10:26:13;;;;;;;5.13;3.27;;;19.60;99.90;;;;;;6186659;23;20399;-75
2021/08/04 10:28:42;;;;;;;5.10;3.30;;;19.80;99.90;;;;;;6185283;23;20526;-75
2021/08/04 10:31:10;;;;;;;5.20;2.97;;;19.90;99.90;;;;;;6185999;23;20403;-72
2021/08/04 10:33:39;;;;;;;4.50;3.37;;;20.10;99.90;;;;;;6186216;23;20763;-72
2021/08/04 10:36:10;;;;;;;4.30;3.33;;;20.10;99.90;;;;;;6185882;23;20874;-73
2021/08/04 10:38:48;;;;;;;5.83;2.60;;;20.30;99.90;;;;;;6184546;23;20432;-72
2021/08/04 10:41:17;;;;;;;2.87;2.63;;;20.30;99.90;;;;;;6184528;23;20404;-73
2021/08/04 10:43:47;;;;;;;3.20;2.60;;;20.60;99.90;;;;;;6184776;23;20391;-72
2021/08/04 10:46:37;;;;;;;3.63;2.53;;;20.70;99.90;;;;;;6185646;23;20399;-73
2021/08/04 10:49:23;;;;;;;3.80;2.70;;;20.80;99.90;;;;;;6185373;23;20434;-73
2021/08/04 10:52:22;;;;;;;3.23;2.83;;;21.00;99.90;;;;;;6185373;23;20388;-72
2021/08/04 10:55:12;;;;;;;6.27;2.97;;;21.30;99.90;;;;;;6185881;23;20400;-72
2021/08/04 10:58:16;;;;;;;3.50;2.50;;;21.50;99.90;;;;;;6184539;23;20426;-71
2021/08/04 11:00:43;;;;;;;8.30;3.57;;;21.80;99.90;;;;;;6186607;23;20394;-71
2021/08/04 11:03:47;;;;;;;4.37;3.37;;;22.00;99.90;;;;;;6185517;23;20441;-71
2021/08/04 11:06:15;;;;;;;6.43;2.80;;;22.30;99.90;;;;;;6181273;23;20466;-72
2021/08/04 11:08:47;;;;;;;5.20;2.50;;;22.50;99.90;;;;;;6184149;23;20450;-73
2021/08/04 11:11:50;;;;;;;4.20;2.90;;;22.90;99.90;;;;;;6185950;23;20419;-72
2021/08/04 11:14:39;;;;;;;4.67;3.23;;;23.30;99.90;;;;;;6180148;23;20903;-73
2021/08/04 11:17:07;;;;;;;3.43;3.13;;;23.50;99.90;;;;;;6185484;23;20376;-72
2021/08/04 11:20:14;;;;;;;7.60;3.90;;;23.60;99.90;;;;;;6184931;23;20399;-72
2021/08/04 11:22:53;;;;;;;6.40;4.67;;;23.80;99.90;;;;;;6185897;23;20859;-73
2021/08/04 11:25:35;;;;;;;4.97;3.03;;;24.10;99.90;;;;;;6185576;23;20750;-72
2021/08/04 11:28:09;;;;;;;3.30;2.73;;;24.20;99.90;;;;;;6184282;23;20942;-72
2021/08/04 11:30:38;;;;;;;5.27;3.50;;;24.40;99.20;;;;;;6159246;23;20415;-73
2021/08/04 11:33:30;;;;;;;6.30;3.10;;;24.40;99.60;;;;;;6184550;23;20388;-71
2021/08/04 11:36:18;;;;;;;6.30;4.30;;;24.60;99.00;;;;;;6185154;23;20426;-70
2021/08/04 11:38:49;;;;;;;3.73;2.80;;;24.70;96.80;;;;;;6184666;23;20957;-71
2021/08/04 11:41:21;;;;;;;6.00;3.60;;;24.60;95.90;;;;;;6184697;23;20827;-71
2021/08/04 11:43:49;;;;;;;4.57;3.67;;;24.50;97.10;;;;;;6184325;23;20404;-74
2021/08/04 11:46:37;;;;;;;5.47;3.13;;;24.40;96.40;;;;;;6184729;23;20419;-73
2021/08/04 11:49:07;;;;;;;5.67;3.10;;;24.00;96.30;;;;;;6183616;23;20495;-73
2021/08/04 11:51:37;;;;;;;5.53;3.33;;;23.80;97.40;;;;;;6183461;23;20847;-71
2021/08/04 11:54:06;;;;;;;5.63;3.00;;;23.90;97.60;;;;;;6183023;23;20403;-73
2021/08/04 11:56:34;;;;;;;4.80;2.80;;;23.80;96.60;;;;;;6184506;23;20398;-73
2021/08/04 11:59:04;;;;;;;3.13;2.43;;;23.80;98.10;;;;;;6184252;23;20427;-72
2021/08/04 12:01:32;;;;;;;5.50;3.60;;;23.80;98.70;;;;;;6184309;23;20396;-73
2021/08/04 12:04:07;;;;;;;5.00;2.50;;;23.70;98.60;;;;;;6183949;23;20403;-74
2021/08/04 12:06:37;;;;;;;4.77;2.80;;;23.80;97.60;;;;;;6184121;23;20482;-74
2021/08/04 12:09:27;;;;;;;7.03;2.50;;;23.70;97.30;;;;;;6184938;23;20416;-73
2021/08/04 12:11:57;;;;;;;4.73;3.00;;;23.70;97.10;;;;;;6185209;23;20704;-72
2021/08/04 12:14:26;;;;;;;6.43;2.60;;;23.60;98.20;;;;;;6186131;23;20400;-74
2021/08/04 12:16:55;;;;;;;5.47;3.33;;;23.50;98.40;;;;;;6183383;23;20851;-73
2021/08/04 12:19:37;;;;;;;4.03;3.03;;;23.50;98.50;;;;;;6185687;23;20450;-73
2021/08/04 12:22:07;;;;;;;2.67;2.20;;;23.60;98.50;;;;;;6184391;23;20392;-72
2021/08/04 12:24:46;;;;;;;8.10;3.00;;;23.80;97.80;;;;;;6185519;23;20396;-74
2021/08/04 12:27:15;;;;;;;5.60;3.60;;;23.80;97.50;;;;;;6183785;23;20463;-71
2021/08/04 12:29:42;;;;;;;2.60;2.40;;;23.90;97.30;;;;;;6185365;23;20395;-72
2021/08/04 12:32:14;;;;;;;3.43;2.10;;;23.90;96.50;;;;;;6184525;23;20396;-74
2021/08/04 12:34:51;;;;;;;4.23;2.70;;;24.00;96.50;;;;;;6185348;23;20404;-74
2021/08/04 12:37:19;;;;;;;2.40;2.20;;;24.00;97.20;;;;;;6183602;23;20918;-73
2021/08/04 12:39:47;;;;;;;3.23;2.80;;;24.00;97.20;;;;;;6185508;23;20419;-74
2021/08/04 12:42:18;;;;;;;3.90;2.70;;;23.90;98.30;;;;;;6184759;23;20392;-73
2021/08/04 12:44:45;;;;;;;4.50;2.60;;;24.10;96.90;;;;;;6184692;23;20444;-72
2021/08/04 12:47:15;;;;;;;9.90;6.70;;;24.20;97.10;;;;;;6182980;23;20519;-72
2021/08/04 12:49:44;;;;;;;6.97;2.67;;;24.20;97.70;;;;;;6185161;23;20414;-72
2021/08/04 12:52:12;;;;;;;4.30;3.20;;;24.00;97.30;;;;;;6184620;23;20420;-73
2021/08/04 12:54:39;;;;;;;4.40;3.40;;;23.80;97.40;;;;;;6185081;23;20392;-73
2021/08/04 12:57:26;;;;;;;5.20;2.63;;;23.70;97.90;;;;;;6183610;23;20792;-73
2021/08/04 12:59:53;;;;;;;2.87;2.30;;;23.80;97.90;;;;;;6157740;23;20793;-72
2021/08/04 13:02:22;;;;;;;2.50;2.30;;;24.10;97.50;;;;;;6184501;23;20403;-73